CZ-0027 weather

Teaching Hospital Na Bulovce Heliport
Praha 8, Prague (capital city), Czech Republic

Public forecast

Using degrees Celsius for public forecast. Weather courtesy of forecast.io.

Closest aviation weather report (METAR) to Teaching Hospital Na Bulovce Heliport

Closest report is Kbely Air Base, 3.1 nm (5.8 km) E. Retrieved 2019/11/12 22:00 UTC (26 minutes ago):

LKKB 122200Z 20004KT 0500 R24/2000U -RA FG SCT002 BKN013 OVC017 00/00 Q1006

Closest aviation forecast (TAF) to Teaching Hospital Na Bulovce Heliport

Closest forecast is Kbely Air Base, 3.1 nm (5.8 km) E. Retrieved 2019/11/12 18:00 UTC (4 hours ago):

TAF LKKB 121700Z 1218/1318 VRB02KT 7000 RA SCT010 OVC015 BECMG 1220/1222 5000 RA BR BKN005 OVC008 TEMPO 1300/1308 2500 RASN BR OVC004 BECMG 1308/1310 26006KT